createdAt,value
2022-10-09T00:01:17.317Z,10.34
2022-10-09T00:03:46.405Z,10.28
2022-10-09T00:06:17.057Z,10.35
2022-10-09T00:08:44.384Z,10.37
2022-10-09T00:11:17.427Z,9.80
2022-10-09T00:13:44.588Z,10.07
2022-10-09T00:16:14.617Z,10.28
2022-10-09T00:18:42.863Z,10.28
2022-10-09T00:21:22.792Z,10.26
2022-10-09T00:23:51.103Z,10.08
2022-10-09T00:26:18.673Z,10.21
2022-10-09T00:28:46.452Z,10.14
2022-10-09T00:31:16.750Z,10.12
2022-10-09T00:33:44.262Z,10.10
2022-10-09T00:36:14.587Z,10.08
2022-10-09T00:38:41.875Z,10.06
2022-10-09T00:41:10.753Z,10.08
2022-10-09T00:44:23.990Z,10.01
2022-10-09T00:46:52.527Z,9.80
2022-10-09T00:49:30.066Z,10.00
2022-10-09T00:52:02.205Z,9.87
2022-10-09T00:54:33.942Z,9.99
2022-10-09T00:57:01.383Z,9.99
2022-10-09T00:59:29.203Z,9.99
2022-10-09T01:01:56.457Z,9.72
2022-10-09T01:04:24.100Z,9.97
2022-10-09T01:07:12.456Z,9.94
2022-10-09T01:09:54.580Z,9.88
2022-10-09T01:12:41.306Z,9.72
2022-10-09T01:15:17.263Z,9.81
2022-10-09T01:18:06.475Z,9.83
2022-10-09T01:20:55.143Z,9.83
2022-10-09T01:23:27.953Z,9.80
2022-10-09T01:26:23.747Z,9.82
2022-10-09T01:28:58.342Z,9.62
2022-10-09T01:31:31.121Z,9.74
2022-10-09T01:33:59.954Z,9.61
2022-10-09T01:36:29.792Z,9.72
2022-10-09T01:39:03.385Z,9.48
2022-10-09T01:41:30.825Z,9.39
2022-10-09T01:43:57.914Z,9.46
2022-10-09T01:46:29.947Z,9.59
2022-10-09T01:49:16.073Z,9.57
2022-10-09T01:51:56.824Z,9.53
2022-10-09T01:54:37.535Z,9.54
2022-10-09T01:57:08.662Z,9.58
2022-10-09T01:59:39.224Z,9.60
2022-10-09T02:02:08.029Z,9.54
2022-10-09T02:04:39.144Z,9.53
2022-10-09T02:07:06.632Z,9.51
2022-10-09T02:09:35.813Z,9.51
2022-10-09T02:12:08.583Z,9.44
2022-10-09T02:14:37.391Z,9.50
2022-10-09T02:17:18.862Z,9.49
2022-10-09T02:19:52.513Z,9.40
2022-10-09T02:22:25.543Z,9.42
2022-10-09T02:24:53.483Z,9.41
2022-10-09T02:27:22.264Z,9.46
2022-10-09T02:29:49.942Z,9.31
2022-10-09T02:32:17.151Z,9.41
2022-10-09T02:34:44.745Z,9.43
2022-10-09T02:37:11.942Z,9.28
2022-10-09T02:39:39.268Z,9.43
2022-10-09T02:42:06.549Z,9.43
2022-10-09T02:44:33.544Z,9.37
2022-10-09T02:47:00.863Z,9.39
2022-10-09T02:49:27.987Z,9.41
2022-10-09T02:51:55.064Z,9.43
2022-10-09T02:54:22.183Z,9.34
2022-10-09T02:56:49.267Z,9.33
2022-10-09T02:59:16.475Z,9.17
2022-10-09T03:01:43.640Z,9.28
2022-10-09T03:04:11.072Z,9.29
2022-10-09T03:06:38.188Z,9.32
2022-10-09T03:09:05.599Z,9.09
2022-10-09T03:11:32.983Z,8.97
2022-10-09T03:14:00.163Z,9.31
2022-10-09T03:16:28.371Z,9.25
2022-10-09T03:18:56.626Z,9.26
2022-10-09T03:21:25.749Z,9.32
2022-10-09T03:23:53.833Z,9.32
2022-10-09T03:26:26.383Z,9.30
2022-10-09T03:28:54.564Z,9.01
2022-10-09T03:31:51.700Z,9.24
2022-10-09T03:34:12.553Z,9.20
2022-10-09T03:36:39.675Z,9.21
2022-10-09T03:39:06.781Z,8.70
2022-10-09T03:41:33.868Z,9.21
2022-10-09T03:44:01.064Z,9.01
2022-10-09T03:46:28.420Z,9.10
2022-10-09T03:48:55.869Z,8.90
2022-10-09T03:51:22.946Z,8.99
2022-10-09T03:53:50.285Z,9.15
2022-10-09T03:56:17.552Z,9.10
2022-10-09T03:58:44.748Z,9.05
2022-10-09T04:01:12.125Z,8.87
2022-10-09T04:03:39.332Z,8.79
2022-10-09T04:06:06.751Z,8.85
2022-10-09T04:08:34.071Z,8.87
2022-10-09T04:11:02.555Z,9.02
2022-10-09T04:13:30.082Z,9.02
2022-10-09T04:15:58.265Z,8.95
2022-10-09T04:18:25.465Z,8.99
2022-10-09T04:20:54.954Z,8.94
2022-10-09T04:23:25.874Z,8.90
2022-10-09T04:25:58.904Z,9.00
2022-10-09T04:28:28.029Z,8.71
2022-10-09T04:30:57.512Z,8.95
2022-10-09T04:33:25.665Z,8.94
2022-10-09T04:35:54.537Z,8.63
2022-10-09T04:38:24.025Z,8.90
2022-10-09T04:41:05.793Z,8.91
2022-10-09T04:43:34.235Z,8.92
2022-10-09T04:46:06.319Z,8.88
2022-10-09T04:48:42.151Z,8.90
2022-10-09T04:51:11.483Z,8.91
2022-10-09T04:53:39.832Z,8.65
2022-10-09T04:56:09.643Z,8.81
2022-10-09T04:58:37.383Z,8.84
2022-10-09T05:01:09.163Z,8.98
2022-10-09T05:03:37.137Z,8.95
2022-10-09T05:06:07.095Z,9.01
2022-10-09T05:08:35.785Z,8.89
2022-10-09T05:11:08.144Z,8.98
2022-10-09T05:13:38.534Z,8.96
2022-10-09T05:16:07.404Z,8.99
2022-10-09T05:18:35.476Z,9.03
2022-10-09T05:21:06.346Z,9.08
2022-10-09T05:23:33.403Z,9.07
2022-10-09T05:26:05.227Z,9.11
2022-10-09T05:28:33.642Z,9.10
2022-10-09T05:31:03.615Z,9.15
2022-10-09T05:33:31.058Z,9.17
2022-10-09T05:36:00.823Z,9.04
2022-10-09T05:38:28.706Z,9.01
2022-10-09T05:40:58.533Z,9.23
2022-10-09T05:43:27.906Z,9.16
2022-10-09T05:45:55.257Z,9.26
2022-10-09T05:48:23.504Z,8.74
2022-10-09T05:50:50.825Z,9.22
2022-10-09T05:53:18.044Z,9.29
2022-10-09T05:55:45.068Z,8.94
2022-10-09T05:58:12.289Z,9.20
2022-10-09T06:00:39.424Z,9.31
2022-10-09T06:03:06.550Z,9.36
2022-10-09T06:05:33.620Z,9.31
2022-10-09T06:08:00.864Z,9.30
2022-10-09T06:10:32.092Z,9.36
2022-10-09T06:13:01.982Z,9.39
2022-10-09T06:15:29.278Z,9.27
2022-10-09T06:17:56.375Z,9.41
2022-10-09T06:20:23.918Z,9.47
2022-10-09T06:22:51.900Z,9.47
2022-10-09T06:25:18.996Z,9.38
2022-10-09T06:27:46.233Z,9.56
2022-10-09T06:30:13.638Z,9.28
2022-10-09T06:32:40.911Z,9.56
2022-10-09T06:35:08.598Z,9.52
2022-10-09T06:37:35.614Z,9.64
2022-10-09T06:40:02.746Z,9.66
2022-10-09T06:42:29.905Z,9.62
2022-10-09T06:44:58.343Z,9.69
2022-10-09T06:47:25.917Z,9.70
2022-10-09T06:49:53.087Z,9.71
2022-10-09T06:52:20.101Z,9.73
2022-10-09T06:54:47.185Z,9.75
2022-10-09T06:57:14.593Z,9.48
2022-10-09T06:59:41.792Z,9.55
2022-10-09T07:02:09.319Z,9.69
2022-10-09T07:04:36.464Z,9.76
2022-10-09T07:07:03.948Z,9.15
2022-10-09T07:09:31.513Z,9.85
2022-10-09T07:11:59.005Z,9.90
2022-10-09T07:14:26.288Z,9.97
2022-10-09T07:16:53.642Z,9.98
2022-10-09T07:19:21.983Z,10.10
2022-10-09T07:21:50.593Z,10.12
2022-10-09T07:24:20.934Z,10.14
2022-10-09T07:26:48.426Z,10.16
2022-10-09T07:29:18.513Z,10.21
2022-10-09T07:31:45.988Z,9.96
2022-10-09T07:34:13.217Z,10.21
2022-10-09T07:36:40.470Z,10.19
2022-10-09T07:39:07.865Z,10.12
2022-10-09T07:41:35.561Z,10.11
2022-10-09T07:44:02.800Z,10.05
2022-10-09T07:46:33.629Z,9.86
2022-10-09T07:49:02.229Z,10.23
2022-10-09T07:51:31.289Z,10.26
2022-10-09T07:54:00.445Z,9.98
2022-10-09T07:56:36.043Z,10.39
2022-10-09T07:59:06.166Z,10.42
2022-10-09T08:01:35.422Z,10.15
2022-10-09T08:04:03.213Z,10.49
2022-10-09T08:06:31.018Z,10.49
2022-10-09T08:09:00.004Z,10.12
2022-10-09T08:11:29.091Z,10.54
2022-10-09T08:13:56.315Z,10.55
2022-10-09T08:16:24.995Z,10.64
2022-10-09T08:18:57.503Z,10.67
2022-10-09T08:21:24.774Z,10.64
2022-10-09T08:23:57.079Z,10.76
2022-10-09T08:26:26.306Z,10.86
2022-10-09T08:28:56.358Z,10.82
2022-10-09T08:31:24.720Z,10.74
2022-10-09T08:33:54.166Z,10.79
2022-10-09T08:36:22.236Z,10.86
2022-10-09T08:38:49.537Z,10.78
2022-10-09T08:41:42.265Z,10.94
2022-10-09T08:44:47.075Z,10.92
2022-10-09T08:47:32.515Z,10.89
2022-10-09T08:50:24.086Z,10.88
2022-10-09T08:53:01.038Z,10.93
2022-10-09T08:55:58.823Z,10.79
2022-10-09T08:58:31.482Z,10.96
2022-10-09T09:01:29.235Z,10.98
2022-10-09T09:04:25.757Z,11.02
2022-10-09T09:07:11.364Z,11.06
2022-10-09T09:09:56.767Z,11.12
2022-10-09T09:12:29.961Z,11.21
2022-10-09T09:15:27.988Z,11.25
2022-10-09T09:17:58.219Z,11.26
2022-10-09T09:20:31.446Z,11.35
2022-10-09T09:23:01.483Z,11.34
2022-10-09T09:25:33.974Z,11.46
2022-10-09T09:28:16.262Z,11.48
2022-10-09T09:30:58.197Z,11.53
2022-10-09T09:33:42.267Z,11.65
2022-10-09T09:36:21.669Z,11.72
2022-10-09T09:39:25.255Z,11.78
2022-10-09T09:41:37.468Z,11.88
2022-10-09T09:44:06.866Z,11.94
2022-10-09T09:46:34.897Z,11.92
2022-10-09T09:49:04.788Z,11.91
2022-10-09T09:51:36.714Z,11.91
2022-10-09T09:54:17.340Z,12.07
2022-10-09T09:57:11.263Z,12.47
2022-10-09T09:59:40.425Z,12.52
2022-10-09T10:02:21.700Z,12.52
2022-10-09T10:05:00.220Z,12.49
2022-10-09T10:07:32.548Z,12.52
2022-10-09T10:10:07.602Z,12.60
2022-10-09T10:12:41.427Z,12.64
2022-10-09T10:15:19.432Z,12.76
2022-10-09T10:17:48.348Z,12.80
2022-10-09T10:20:17.736Z,12.76
2022-10-09T10:22:53.443Z,12.59
2022-10-09T10:25:25.597Z,12.64
2022-10-09T10:27:58.908Z,12.62
2022-10-09T10:30:26.103Z,12.35
2022-10-09T10:33:14.199Z,12.31
2022-10-09T10:35:44.024Z,12.51
2022-10-09T10:38:17.794Z,12.48
2022-10-09T10:40:45.174Z,12.49
2022-10-09T10:43:46.003Z,12.46
2022-10-09T10:46:52.738Z,12.46
2022-10-09T10:49:22.996Z,12.49
2022-10-09T10:51:54.189Z,12.50
2022-10-09T10:54:26.673Z,12.51
2022-10-09T10:57:26.970Z,12.53
2022-10-09T11:00:06.651Z,12.54
2022-10-09T11:02:40.950Z,12.57
2022-10-09T11:05:27.317Z,12.49
2022-10-09T11:08:03.578Z,12.67
2022-10-09T11:10:58.606Z,12.72
2022-10-09T11:13:28.600Z,12.75
2022-10-09T11:16:19.688Z,12.76
2022-10-09T11:18:46.873Z,12.75
2022-10-09T11:21:17.475Z,12.74
2022-10-09T11:23:59.923Z,12.76
2022-10-09T11:26:53.044Z,12.73
2022-10-09T11:29:37.317Z,12.66
2022-10-09T11:32:19.185Z,12.79
2022-10-09T11:35:07.620Z,12.72
2022-10-09T11:37:39.472Z,12.79
2022-10-09T11:40:13.857Z,12.73
2022-10-09T11:42:42.274Z,12.90
2022-10-09T11:45:29.447Z,13.02
2022-10-09T11:48:30.573Z,13.14
2022-10-09T11:51:23.674Z,13.22
2022-10-09T11:53:53.585Z,13.17
2022-10-09T11:56:26.354Z,13.13
2022-10-09T11:59:02.483Z,13.17
2022-10-09T12:01:36.236Z,13.03
2022-10-09T12:04:37.352Z,13.37
2022-10-09T12:07:13.003Z,13.51
2022-10-09T12:09:48.798Z,13.33
2022-10-09T12:12:15.786Z,13.88
2022-10-09T12:14:45.689Z,14.03
2022-10-09T12:17:22.863Z,14.17
2022-10-09T12:20:04.614Z,14.29
2022-10-09T12:22:41.631Z,14.37
2022-10-09T12:25:30.861Z,14.38
2022-10-09T12:28:00.603Z,14.41
2022-10-09T12:30:47.486Z,14.29
2022-10-09T12:33:14.934Z,14.29
2022-10-09T12:35:46.275Z,14.19
2022-10-09T12:38:26.758Z,14.09
2022-10-09T12:40:57.989Z,14.15
2022-10-09T12:43:25.487Z,14.08
2022-10-09T12:45:54.242Z,14.17
2022-10-09T12:48:26.204Z,14.17
2022-10-09T12:50:53.959Z,14.05
2022-10-09T12:53:24.167Z,14.09
2022-10-09T12:56:01.053Z,14.10
2022-10-09T12:58:30.115Z,14.13
2022-10-09T13:01:01.410Z,14.22
2022-10-09T13:03:43.946Z,14.14
2022-10-09T13:06:17.794Z,14.10
2022-10-09T13:08:46.161Z,14.03
2022-10-09T13:11:24.716Z,13.77
2022-10-09T13:13:54.158Z,13.84
2022-10-09T13:16:22.647Z,13.84
2022-10-09T13:19:04.198Z,13.84
2022-10-09T13:21:35.611Z,13.72
2022-10-09T13:24:13.755Z,13.75
2022-10-09T13:26:44.284Z,13.79
2022-10-09T13:29:13.755Z,13.80
2022-10-09T13:31:43.886Z,13.77
2022-10-09T13:34:14.715Z,13.78
2022-10-09T13:36:42.149Z,13.80
2022-10-09T13:39:16.575Z,13.79
2022-10-09T13:41:45.267Z,13.72
2022-10-09T13:44:12.345Z,13.74
2022-10-09T13:46:39.397Z,13.63
2022-10-09T13:49:06.466Z,13.70
2022-10-09T13:51:33.854Z,13.18
2022-10-09T13:54:01.161Z,13.33
2022-10-09T13:56:29.284Z,13.52
2022-10-09T13:58:56.637Z,13.68
2022-10-09T14:01:23.893Z,13.57
2022-10-09T14:03:51.257Z,13.53
2022-10-09T14:06:18.754Z,13.61
2022-10-09T14:08:46.033Z,13.58
2022-10-09T14:11:13.113Z,13.61
2022-10-09T14:13:40.129Z,13.51
2022-10-09T14:16:08.030Z,13.59
2022-10-09T14:18:35.254Z,13.02
2022-10-09T14:21:13.934Z,13.47
2022-10-09T14:23:42.296Z,13.56
2022-10-09T14:26:09.852Z,13.48
2022-10-09T14:28:37.441Z,13.55
2022-10-09T14:31:07.124Z,13.52
2022-10-09T14:33:34.534Z,13.52
2022-10-09T14:36:16.304Z,13.48
2022-10-09T14:38:43.427Z,13.42
2022-10-09T14:41:12.193Z,13.46
2022-10-09T14:43:39.353Z,13.32
2022-10-09T14:46:12.832Z,13.45
2022-10-09T14:48:40.481Z,13.43
2022-10-09T14:51:21.595Z,13.39
2022-10-09T14:53:48.714Z,13.34
2022-10-09T14:56:18.622Z,13.35
2022-10-09T14:58:46.433Z,13.06
2022-10-09T15:01:15.654Z,13.27
2022-10-09T15:03:43.435Z,13.25
2022-10-09T15:06:12.877Z,13.22
2022-10-09T15:08:43.268Z,13.18
2022-10-09T15:11:11.235Z,13.10
2022-10-09T15:13:39.663Z,13.05
2022-10-09T15:16:10.019Z,13.05
2022-10-09T15:18:37.159Z,12.98
2022-10-09T15:21:04.813Z,12.81
2022-10-09T15:23:32.185Z,12.93
2022-10-09T15:26:01.503Z,12.70
2022-10-09T15:28:28.936Z,12.83
2022-10-09T15:31:00.558Z,12.83
2022-10-09T15:33:28.034Z,12.77
2022-10-09T15:35:55.080Z,12.70
2022-10-09T15:38:23.869Z,12.65
2022-10-09T15:40:54.043Z,12.51
2022-10-09T15:43:23.633Z,12.37
2022-10-09T15:45:51.647Z,12.40
2022-10-09T15:48:22.612Z,12.30
2022-10-09T15:50:54.183Z,11.95
2022-10-09T15:53:23.711Z,11.87
2022-10-09T15:55:53.463Z,11.72
2022-10-09T15:58:21.042Z,11.88
2022-10-09T16:00:50.103Z,11.86
2022-10-09T16:03:18.348Z,11.78
2022-10-09T16:05:49.244Z,11.64
2022-10-09T16:08:18.068Z,11.25
2022-10-09T16:10:49.166Z,11.44
2022-10-09T16:13:17.024Z,11.37
2022-10-09T16:15:47.603Z,11.31
2022-10-09T16:18:22.725Z,11.09
2022-10-09T16:20:51.229Z,11.15
2022-10-09T16:23:19.160Z,11.05
2022-10-09T16:25:58.087Z,10.96
2022-10-09T16:28:26.035Z,10.85
2022-10-09T16:30:53.563Z,10.68
2022-10-09T16:33:20.925Z,10.73
2022-10-09T16:35:48.196Z,10.68
2022-10-09T16:38:16.104Z,10.59
2022-10-09T16:41:01.929Z,10.46
2022-10-09T16:43:33.234Z,10.48
2022-10-09T16:46:23.547Z,10.44
2022-10-09T16:48:51.405Z,10.34
2022-10-09T16:51:24.479Z,10.32
2022-10-09T16:53:53.535Z,9.76
2022-10-09T16:56:23.938Z,10.23
2022-10-09T16:58:53.762Z,10.13
2022-10-09T17:01:21.104Z,10.08
2022-10-09T17:03:48.296Z,9.85
2022-10-09T17:06:21.098Z,10.02
2022-10-09T17:08:48.637Z,9.98
2022-10-09T17:11:17.387Z,9.64
2022-10-09T17:13:46.087Z,9.70
2022-10-09T17:16:18.486Z,9.94
2022-10-09T17:18:48.067Z,9.59
2022-10-09T17:21:17.672Z,9.80
2022-10-09T17:23:45.947Z,9.87
2022-10-09T17:26:17.173Z,9.82
2022-10-09T17:28:45.666Z,9.76
2022-10-09T17:31:15.803Z,9.09
2022-10-09T17:33:46.270Z,9.71
2022-10-09T17:36:17.199Z,9.67
2022-10-09T17:38:45.284Z,9.37
2022-10-09T17:41:14.906Z,9.42
2022-10-09T17:43:42.642Z,9.55
2022-10-09T17:46:09.764Z,9.38
2022-10-09T17:48:39.571Z,9.50
2022-10-09T17:51:06.828Z,9.33
2022-10-09T17:53:33.834Z,9.33
2022-10-09T17:56:04.553Z,9.33
2022-10-09T17:58:31.673Z,9.43
2022-10-09T18:00:59.128Z,9.37
2022-10-09T18:03:26.236Z,9.32
2022-10-09T18:05:53.443Z,9.24
2022-10-09T18:08:20.723Z,9.30
2022-10-09T18:10:48.281Z,9.02
2022-10-09T18:13:15.694Z,9.10
2022-10-09T18:15:44.392Z,9.29
2022-10-09T18:18:12.224Z,9.14
2022-10-09T18:20:40.793Z,9.25
2022-10-09T18:23:08.854Z,9.16
2022-10-09T18:25:41.448Z,9.05
2022-10-09T18:28:09.667Z,9.01
2022-10-09T18:30:46.673Z,9.01
2022-10-09T18:33:14.014Z,8.95
2022-10-09T18:35:41.163Z,8.66
2022-10-09T18:38:09.954Z,9.00
2022-10-09T18:40:45.604Z,8.87
2022-10-09T18:43:13.543Z,8.76
2022-10-09T18:45:45.755Z,8.94
2022-10-09T18:48:14.371Z,8.88
2022-10-09T18:50:41.695Z,8.56
2022-10-09T18:53:09.122Z,8.85
2022-10-09T18:55:36.223Z,8.78
2022-10-09T18:58:05.088Z,8.77
2022-10-09T19:00:32.275Z,8.65
2022-10-09T19:02:59.471Z,8.81
2022-10-09T19:05:26.771Z,8.78
2022-10-09T19:07:56.034Z,8.69
2022-10-09T19:10:23.315Z,8.60
2022-10-09T19:12:52.792Z,8.74
2022-10-09T19:15:20.160Z,8.66
2022-10-09T19:17:47.880Z,8.59
2022-10-09T19:20:15.510Z,8.67
2022-10-09T19:22:42.866Z,8.57
2022-10-09T19:25:10.146Z,8.37
2022-10-09T19:27:38.023Z,8.57
2022-10-09T19:30:06.045Z,8.60
2022-10-09T19:32:33.386Z,8.27
2022-10-09T19:35:00.573Z,8.40
2022-10-09T19:37:29.806Z,8.51
2022-10-09T19:39:57.608Z,8.54
2022-10-09T19:42:25.064Z,8.55
2022-10-09T19:44:52.393Z,8.53
2022-10-09T19:47:19.588Z,8.52
2022-10-09T19:49:46.704Z,8.52
2022-10-09T19:52:13.908Z,8.48
2022-10-09T19:54:40.985Z,8.43
2022-10-09T19:57:08.184Z,8.55
2022-10-09T19:59:35.465Z,8.45
2022-10-09T20:02:02.545Z,8.34
2022-10-09T20:04:29.758Z,8.49
2022-10-09T20:06:56.934Z,8.50
2022-10-09T20:09:24.039Z,8.59
2022-10-09T20:11:51.104Z,8.56
2022-10-09T20:14:18.313Z,8.61
2022-10-09T20:16:45.509Z,8.62
2022-10-09T20:19:13.864Z,8.27
2022-10-09T20:21:40.909Z,8.39
2022-10-09T20:24:08.524Z,8.64
2022-10-09T20:26:39.690Z,8.42
2022-10-09T20:29:09.346Z,8.64
2022-10-09T20:31:36.691Z,8.37
2022-10-09T20:34:03.764Z,8.39
2022-10-09T20:36:35.124Z,8.63
2022-10-09T20:39:05.906Z,8.61
2022-10-09T20:41:33.283Z,8.53
2022-10-09T20:44:02.358Z,8.35
2022-10-09T20:46:36.025Z,8.61
2022-10-09T20:49:05.233Z,7.94
2022-10-09T20:51:34.873Z,8.53
2022-10-09T20:54:02.685Z,8.64
2022-10-09T20:56:31.614Z,8.42
2022-10-09T20:58:59.756Z,8.53
2022-10-09T21:01:28.942Z,8.39
2022-10-09T21:03:57.837Z,8.71
2022-10-09T21:06:25.509Z,8.69
2022-10-09T21:08:53.040Z,8.73
2022-10-09T21:11:21.121Z,8.69
2022-10-09T21:13:49.225Z,8.52
2022-10-09T21:16:20.473Z,8.71
2022-10-09T21:18:48.650Z,8.69
2022-10-09T21:21:17.769Z,8.70
2022-10-09T21:23:46.307Z,8.70
2022-10-09T21:26:15.951Z,8.31
2022-10-09T21:28:44.402Z,8.73
2022-10-09T21:31:23.617Z,8.59
2022-10-09T21:33:50.754Z,8.67
2022-10-09T21:36:33.420Z,8.63
2022-10-09T21:39:00.685Z,8.63
2022-10-09T21:41:28.198Z,8.57
2022-10-09T21:43:55.543Z,8.56
2022-10-09T21:46:23.103Z,8.52
2022-10-09T21:48:50.706Z,8.55
2022-10-09T21:51:17.947Z,8.49
2022-10-09T21:53:45.262Z,8.43
2022-10-09T21:56:12.517Z,8.35
2022-10-09T21:58:41.956Z,8.51
2022-10-09T22:01:10.765Z,8.18
2022-10-09T22:03:38.400Z,8.32
2022-10-09T22:06:08.107Z,8.33
2022-10-09T22:08:35.840Z,8.41
2022-10-09T22:11:07.834Z,8.39
2022-10-09T22:13:35.066Z,8.35
2022-10-09T22:16:06.729Z,8.33
2022-10-09T22:18:34.455Z,8.36
2022-10-09T22:21:14.370Z,8.38
2022-10-09T22:23:42.282Z,8.34
2022-10-09T22:26:14.228Z,8.24
2022-10-09T22:28:41.511Z,8.39
2022-10-09T22:31:14.144Z,8.40
2022-10-09T22:33:41.905Z,8.38
2022-10-09T22:36:15.186Z,8.31
2022-10-09T22:38:43.064Z,8.38
2022-10-09T22:41:14.024Z,8.35
2022-10-09T22:43:42.024Z,8.36
2022-10-09T22:46:26.664Z,8.33
2022-10-09T22:48:54.053Z,8.04
2022-10-09T22:51:23.416Z,8.33
2022-10-09T22:53:50.828Z,8.28
2022-10-09T22:56:21.062Z,8.31
2022-10-09T22:58:49.206Z,8.31
2022-10-09T23:01:18.418Z,8.30
2022-10-09T23:03:45.742Z,8.30
2022-10-09T23:06:16.256Z,8.28
2022-10-09T23:08:45.623Z,8.04
2022-10-09T23:11:13.503Z,8.26
2022-10-09T23:13:41.154Z,7.83
2022-10-09T23:16:10.850Z,8.29
2022-10-09T23:18:38.717Z,8.27
2022-10-09T23:21:08.953Z,8.22
2022-10-09T23:23:36.149Z,8.10
2022-10-09T23:26:07.778Z,8.22
2022-10-09T23:28:35.737Z,8.22
2022-10-09T23:31:07.865Z,8.19
2022-10-09T23:33:36.039Z,8.07
2022-10-09T23:36:03.506Z,7.95
2022-10-09T23:38:31.008Z,7.98
2022-10-09T23:41:02.945Z,8.17
2022-10-09T23:43:31.195Z,8.14
2022-10-09T23:46:00.771Z,8.02
2022-10-09T23:48:28.592Z,8.03
2022-10-09T23:50:56.913Z,8.05
2022-10-09T23:53:26.362Z,7.99
2022-10-09T23:55:54.691Z,8.02
2022-10-09T23:58:22.435Z,8.03
